sensor_id;sensor_type;location;lat;lon;timestamp;P1;durP1;ratioP1;P2;durP2;ratioP2
635;SDS011;302;50.206;8.196;2023-05-29T00:01:06;3.00;;;2.80;;
635;SDS011;302;50.206;8.196;2023-05-29T00:03:33;3.35;;;3.05;;
635;SDS011;302;50.206;8.196;2023-05-29T00:05:58;3.67;;;3.37;;
635;SDS011;302;50.206;8.196;2023-05-29T00:08:23;3.35;;;3.05;;
635;SDS011;302;50.206;8.196;2023-05-29T00:10:48;3.33;;;2.97;;
635;SDS011;302;50.206;8.196;2023-05-29T00:13:14;5.27;;;4.10;;
635;SDS011;302;50.206;8.196;2023-05-29T00:15:39;3.57;;;3.10;;
635;SDS011;302;50.206;8.196;2023-05-29T00:18:04;3.97;;;2.80;;
635;SDS011;302;50.206;8.196;2023-05-29T00:20:30;3.47;;;2.67;;
635;SDS011;302;50.206;8.196;2023-05-29T00:22:57;3.50;;;3.20;;
635;SDS011;302;50.206;8.196;2023-05-29T00:25:22;2.73;;;2.53;;
635;SDS011;302;50.206;8.196;2023-05-29T00:27:47;3.30;;;3.00;;
635;SDS011;302;50.206;8.196;2023-05-29T00:30:12;3.15;;;2.85;;
635;SDS011;302;50.206;8.196;2023-05-29T00:32:37;3.30;;;3.00;;
635;SDS011;302;50.206;8.196;2023-05-29T00:35:03;2.90;;;2.70;;
635;SDS011;302;50.206;8.196;2023-05-29T00:37:28;4.87;;;3.27;;
635;SDS011;302;50.206;8.196;2023-05-29T00:39:53;5.40;;;3.10;;
635;SDS011;302;50.206;8.196;2023-05-29T00:42:19;3.10;;;2.80;;
635;SDS011;302;50.206;8.196;2023-05-29T00:44:44;3.00;;;2.70;;
635;SDS011;302;50.206;8.196;2023-05-29T00:47:09;3.23;;;2.93;;
635;SDS011;302;50.206;8.196;2023-05-29T00:49:35;3.20;;;2.90;;
635;SDS011;302;50.206;8.196;2023-05-29T00:52:01;3.87;;;3.13;;
635;SDS011;302;50.206;8.196;2023-05-29T00:54:26;3.20;;;2.90;;
635;SDS011;302;50.206;8.196;2023-05-29T00:56:53;2.95;;;2.70;;
635;SDS011;302;50.206;8.196;2023-05-29T00:59:18;3.87;;;2.83;;
635;SDS011;302;50.206;8.196;2023-05-29T01:01:46;3.28;;;2.97;;
635;SDS011;302;50.206;8.196;2023-05-29T01:04:11;3.00;;;2.80;;
635;SDS011;302;50.206;8.196;2023-05-29T01:06:37;3.28;;;3.00;;
635;SDS011;302;50.206;8.196;2023-05-29T01:09:02;3.33;;;3.03;;
635;SDS011;302;50.206;8.196;2023-05-29T01:14:05;3.30;;;3.00;;
635;SDS011;302;50.206;8.196;2023-05-29T01:16:31;3.25;;;3.05;;
635;SDS011;302;50.206;8.196;2023-05-29T01:19:00;3.47;;;2.85;;
635;SDS011;302;50.206;8.196;2023-05-29T01:21:38;4.35;;;3.50;;
635;SDS011;302;50.206;8.196;2023-05-29T01:26:45;3.20;;;2.90;;
635;SDS011;302;50.206;8.196;2023-05-29T01:29:12;3.00;;;2.67;;
635;SDS011;302;50.206;8.196;2023-05-29T01:31:38;3.70;;;3.40;;
635;SDS011;302;50.206;8.196;2023-05-29T01:34:04;3.17;;;2.80;;
635;SDS011;302;50.206;8.196;2023-05-29T01:36:29;3.17;;;2.87;;
635;SDS011;302;50.206;8.196;2023-05-29T01:38:56;3.13;;;2.83;;
635;SDS011;302;50.206;8.196;2023-05-29T01:41:22;5.32;;;3.47;;
635;SDS011;302;50.206;8.196;2023-05-29T01:43:48;4.13;;;3.73;;
635;SDS011;302;50.206;8.196;2023-05-29T01:46:13;3.47;;;3.17;;
635;SDS011;302;50.206;8.196;2023-05-29T01:48:40;3.20;;;2.90;;
635;SDS011;302;50.206;8.196;2023-05-29T01:51:05;3.90;;;3.55;;
635;SDS011;302;50.206;8.196;2023-05-29T01:53:32;3.50;;;3.20;;
635;SDS011;302;50.206;8.196;2023-05-29T01:55:57;3.30;;;3.00;;
635;SDS011;302;50.206;8.196;2023-05-29T01:58:22;4.17;;;3.20;;
635;SDS011;302;50.206;8.196;2023-05-29T02:00:48;3.60;;;3.27;;
635;SDS011;302;50.206;8.196;2023-05-29T02:03:13;3.53;;;3.23;;
635;SDS011;302;50.206;8.196;2023-05-29T02:05:38;4.23;;;3.20;;
635;SDS011;302;50.206;8.196;2023-05-29T02:08:03;4.37;;;3.40;;
635;SDS011;302;50.206;8.196;2023-05-29T02:10:28;3.00;;;2.70;;
635;SDS011;302;50.206;8.196;2023-05-29T02:12:55;2.92;;;2.63;;
635;SDS011;302;50.206;8.196;2023-05-29T02:15:20;3.77;;;3.10;;
635;SDS011;302;50.206;8.196;2023-05-29T02:17:45;4.30;;;3.90;;
635;SDS011;302;50.206;8.196;2023-05-29T02:20:10;3.63;;;3.10;;
635;SDS011;302;50.206;8.196;2023-05-29T02:22:36;3.43;;;3.13;;
635;SDS011;302;50.206;8.196;2023-05-29T02:25:01;3.22;;;2.92;;
635;SDS011;302;50.206;8.196;2023-05-29T02:27:26;3.47;;;3.13;;
635;SDS011;302;50.206;8.196;2023-05-29T02:29:51;5.27;;;3.10;;
635;SDS011;302;50.206;8.196;2023-05-29T02:32:16;2.67;;;2.47;;
635;SDS011;302;50.206;8.196;2023-05-29T02:34:42;3.20;;;2.90;;
635;SDS011;302;50.206;8.196;2023-05-29T02:37:07;3.57;;;2.97;;
635;SDS011;302;50.206;8.196;2023-05-29T02:39:33;5.10;;;3.35;;
635;SDS011;302;50.206;8.196;2023-05-29T02:41:58;2.80;;;2.60;;
635;SDS011;302;50.206;8.196;2023-05-29T02:44:23;4.20;;;3.80;;
635;SDS011;302;50.206;8.196;2023-05-29T02:46:48;3.40;;;2.85;;
635;SDS011;302;50.206;8.196;2023-05-29T02:49:13;3.65;;;3.17;;
635;SDS011;302;50.206;8.196;2023-05-29T02:51:38;5.87;;;2.80;;
635;SDS011;302;50.206;8.196;2023-05-29T02:54:04;3.00;;;2.80;;
635;SDS011;302;50.206;8.196;2023-05-29T02:56:29;3.20;;;2.90;;
635;SDS011;302;50.206;8.196;2023-05-29T02:58:54;3.97;;;2.97;;
635;SDS011;302;50.206;8.196;2023-05-29T03:01:20;3.60;;;3.30;;
635;SDS011;302;50.206;8.196;2023-05-29T03:03:45;3.80;;;2.93;;
635;SDS011;302;50.206;8.196;2023-05-29T03:06:10;3.03;;;2.63;;
635;SDS011;302;50.206;8.196;2023-05-29T03:08:37;2.63;;;2.42;;
635;SDS011;302;50.206;8.196;2023-05-29T03:11:06;3.30;;;3.00;;
635;SDS011;302;50.206;8.196;2023-05-29T03:13:32;3.60;;;3.25;;
635;SDS011;302;50.206;8.196;2023-05-29T03:15:59;3.35;;;3.05;;
635;SDS011;302;50.206;8.196;2023-05-29T03:18:24;3.10;;;2.77;;
635;SDS011;302;50.206;8.196;2023-05-29T03:20:49;2.88;;;2.60;;
635;SDS011;302;50.206;8.196;2023-05-29T03:23:15;3.63;;;3.30;;
635;SDS011;302;50.206;8.196;2023-05-29T03:25:40;3.63;;;3.00;;
635;SDS011;302;50.206;8.196;2023-05-29T03:28:05;4.00;;;2.73;;
635;SDS011;302;50.206;8.196;2023-05-29T03:30:30;3.42;;;2.65;;
635;SDS011;302;50.206;8.196;2023-05-29T03:32:55;3.73;;;2.83;;
635;SDS011;302;50.206;8.196;2023-05-29T03:35:21;4.00;;;3.60;;
635;SDS011;302;50.206;8.196;2023-05-29T03:37:46;2.88;;;2.67;;
635;SDS011;302;50.206;8.196;2023-05-29T03:40:11;4.10;;;2.70;;
635;SDS011;302;50.206;8.196;2023-05-29T03:42:36;3.20;;;2.90;;
635;SDS011;302;50.206;8.196;2023-05-29T03:45:01;3.50;;;3.20;;
635;SDS011;302;50.206;8.196;2023-05-29T03:47:27;3.30;;;3.00;;
635;SDS011;302;50.206;8.196;2023-05-29T03:49:52;3.47;;;3.17;;
635;SDS011;302;50.206;8.196;2023-05-29T03:52:17;4.10;;;3.70;;
635;SDS011;302;50.206;8.196;2023-05-29T03:54:42;3.40;;;2.95;;
635;SDS011;302;50.206;8.196;2023-05-29T03:57:09;4.30;;;3.90;;
635;SDS011;302;50.206;8.196;2023-05-29T03:59:34;3.30;;;3.00;;
635;SDS011;302;50.206;8.196;2023-05-29T04:02:00;3.60;;;3.30;;
635;SDS011;302;50.206;8.196;2023-05-29T04:04:25;3.20;;;2.90;;
635;SDS011;302;50.206;8.196;2023-05-29T04:06:50;3.07;;;2.87;;
635;SDS011;302;50.206;8.196;2023-05-29T04:09:15;3.63;;;3.20;;
635;SDS011;302;50.206;8.196;2023-05-29T04:11:40;3.85;;;3.45;;
635;SDS011;302;50.206;8.196;2023-05-29T04:14:06;3.88;;;3.40;;
635;SDS011;302;50.206;8.196;2023-05-29T04:16:31;4.77;;;3.07;;
635;SDS011;302;50.206;8.196;2023-05-29T04:18:56;4.07;;;3.47;;
635;SDS011;302;50.206;8.196;2023-05-29T04:21:22;4.07;;;3.50;;
635;SDS011;302;50.206;8.196;2023-05-29T04:23:47;3.50;;;3.20;;
635;SDS011;302;50.206;8.196;2023-05-29T04:26:12;4.65;;;3.40;;
635;SDS011;302;50.206;8.196;2023-05-29T04:28:38;4.87;;;4.27;;
635;SDS011;302;50.206;8.196;2023-05-29T04:31:03;4.37;;;3.97;;
635;SDS011;302;50.206;8.196;2023-05-29T04:33:28;4.13;;;3.73;;
635;SDS011;302;50.206;8.196;2023-05-29T04:35:54;3.92;;;3.28;;
635;SDS011;302;50.206;8.196;2023-05-29T04:38:19;6.53;;;4.13;;
635;SDS011;302;50.206;8.196;2023-05-29T04:40:49;4.50;;;4.20;;
635;SDS011;302;50.206;8.196;2023-05-29T04:43:15;4.33;;;3.93;;
635;SDS011;302;50.206;8.196;2023-05-29T04:45:40;4.77;;;4.30;;
635;SDS011;302;50.206;8.196;2023-05-29T04:48:06;5.73;;;4.60;;
635;SDS011;302;50.206;8.196;2023-05-29T04:50:33;4.78;;;4.28;;
635;SDS011;302;50.206;8.196;2023-05-29T04:52:59;4.67;;;4.13;;
635;SDS011;302;50.206;8.196;2023-05-29T04:55:24;4.73;;;4.33;;
635;SDS011;302;50.206;8.196;2023-05-29T04:57:49;4.37;;;3.97;;
635;SDS011;302;50.206;8.196;2023-05-29T05:00:15;4.78;;;4.35;;
635;SDS011;302;50.206;8.196;2023-05-29T05:02:43;5.43;;;4.30;;
635;SDS011;302;50.206;8.196;2023-05-29T05:05:09;4.68;;;4.28;;
635;SDS011;302;50.206;8.196;2023-05-29T05:07:34;4.50;;;4.10;;
635;SDS011;302;50.206;8.196;2023-05-29T05:10:00;5.33;;;4.67;;
635;SDS011;302;50.206;8.196;2023-05-29T05:12:25;4.60;;;4.17;;
635;SDS011;302;50.206;8.196;2023-05-29T05:14:50;6.20;;;4.67;;
635;SDS011;302;50.206;8.196;2023-05-29T05:17:15;4.40;;;4.00;;
635;SDS011;302;50.206;8.196;2023-05-29T05:19:40;5.10;;;4.60;;
635;SDS011;302;50.206;8.196;2023-05-29T05:22:06;4.25;;;3.85;;
635;SDS011;302;50.206;8.196;2023-05-29T05:24:31;5.43;;;4.93;;
635;SDS011;302;50.206;8.196;2023-05-29T05:26:57;4.73;;;4.27;;
635;SDS011;302;50.206;8.196;2023-05-29T05:29:22;5.27;;;4.77;;
635;SDS011;302;50.206;8.196;2023-05-29T05:31:47;5.60;;;5.20;;
635;SDS011;302;50.206;8.196;2023-05-29T05:34:13;5.00;;;4.50;;
635;SDS011;302;50.206;8.196;2023-05-29T05:36:38;8.00;;;4.90;;
635;SDS011;302;50.206;8.196;2023-05-29T05:39:03;5.20;;;4.70;;
635;SDS011;302;50.206;8.196;2023-05-29T05:41:28;5.37;;;4.20;;
635;SDS011;302;50.206;8.196;2023-05-29T05:43:54;5.13;;;4.63;;
635;SDS011;302;50.206;8.196;2023-05-29T05:46:19;5.33;;;4.83;;
635;SDS011;302;50.206;8.196;2023-05-29T05:48:44;6.60;;;4.87;;
635;SDS011;302;50.206;8.196;2023-05-29T05:51:09;4.43;;;4.03;;
635;SDS011;302;50.206;8.196;2023-05-29T05:53:35;5.80;;;4.20;;
635;SDS011;302;50.206;8.196;2023-05-29T05:56:01;4.40;;;4.00;;
635;SDS011;302;50.206;8.196;2023-05-29T05:58:26;4.90;;;4.40;;
635;SDS011;302;50.206;8.196;2023-05-29T06:00:51;5.90;;;4.20;;
635;SDS011;302;50.206;8.196;2023-05-29T06:03:17;4.35;;;3.95;;
635;SDS011;302;50.206;8.196;2023-05-29T06:05:42;5.13;;;4.10;;
635;SDS011;302;50.206;8.196;2023-05-29T06:08:07;5.30;;;4.20;;
635;SDS011;302;50.206;8.196;2023-05-29T06:10:33;4.93;;;4.53;;
635;SDS011;302;50.206;8.196;2023-05-29T06:12:58;5.35;;;4.88;;
635;SDS011;302;50.206;8.196;2023-05-29T06:15:23;5.63;;;4.07;;
635;SDS011;302;50.206;8.196;2023-05-29T06:17:49;6.03;;;4.47;;
635;SDS011;302;50.206;8.196;2023-05-29T06:20:16;5.10;;;3.90;;
635;SDS011;302;50.206;8.196;2023-05-29T06:22:41;4.47;;;3.60;;
635;SDS011;302;50.206;8.196;2023-05-29T06:25:07;4.60;;;3.93;;
635;SDS011;302;50.206;8.196;2023-05-29T06:27:32;4.10;;;3.70;;
635;SDS011;302;50.206;8.196;2023-05-29T06:29:57;3.90;;;3.53;;
635;SDS011;302;50.206;8.196;2023-05-29T06:32:22;5.43;;;4.90;;
635;SDS011;302;50.206;8.196;2023-05-29T06:34:47;4.60;;;4.20;;
635;SDS011;302;50.206;8.196;2023-05-29T06:37:12;5.20;;;3.70;;
635;SDS011;302;50.206;8.196;2023-05-29T06:39:38;5.10;;;3.63;;
635;SDS011;302;50.206;8.196;2023-05-29T06:42:06;6.13;;;4.57;;
635;SDS011;302;50.206;8.196;2023-05-29T06:44:32;5.00;;;4.37;;
635;SDS011;302;50.206;8.196;2023-05-29T06:46:57;4.70;;;3.97;;
635;SDS011;302;50.206;8.196;2023-05-29T06:49:22;5.65;;;4.40;;
635;SDS011;302;50.206;8.196;2023-05-29T06:51:47;4.35;;;3.90;;
635;SDS011;302;50.206;8.196;2023-05-29T06:54:12;4.57;;;4.03;;
635;SDS011;302;50.206;8.196;2023-05-29T06:56:38;4.35;;;3.92;;
635;SDS011;302;50.206;8.196;2023-05-29T06:59:04;5.10;;;4.03;;
635;SDS011;302;50.206;8.196;2023-05-29T07:01:29;3.93;;;3.63;;
635;SDS011;302;50.206;8.196;2023-05-29T07:03:54;5.82;;;4.18;;
635;SDS011;302;50.206;8.196;2023-05-29T07:06:19;5.03;;;3.80;;
635;SDS011;302;50.206;8.196;2023-05-29T07:08:45;5.07;;;4.00;;
635;SDS011;302;50.206;8.196;2023-05-29T07:11:10;3.90;;;3.60;;
635;SDS011;302;50.206;8.196;2023-05-29T07:13:35;4.20;;;3.83;;
635;SDS011;302;50.206;8.196;2023-05-29T07:16:00;5.50;;;4.27;;
635;SDS011;302;50.206;8.196;2023-05-29T07:18:25;7.73;;;3.50;;
635;SDS011;302;50.206;8.196;2023-05-29T07:20:51;4.90;;;4.50;;
635;SDS011;302;50.206;8.196;2023-05-29T07:23:16;4.40;;;3.67;;
635;SDS011;302;50.206;8.196;2023-05-29T07:25:41;3.50;;;3.20;;
635;SDS011;302;50.206;8.196;2023-05-29T07:28:10;3.78;;;3.38;;
635;SDS011;302;50.206;8.196;2023-05-29T07:30:38;4.97;;;4.00;;
635;SDS011;302;50.206;8.196;2023-05-29T07:33:03;4.25;;;2.83;;
635;SDS011;302;50.206;8.196;2023-05-29T07:35:29;4.30;;;3.37;;
635;SDS011;302;50.206;8.196;2023-05-29T07:37:57;4.80;;;3.38;;
635;SDS011;302;50.206;8.196;2023-05-29T07:43:26;5.63;;;3.75;;
635;SDS011;302;50.206;8.196;2023-05-29T07:46:06;3.60;;;3.30;;
635;SDS011;302;50.206;8.196;2023-05-29T07:48:32;4.47;;;3.97;;
635;SDS011;302;50.206;8.196;2023-05-29T07:51:00;7.88;;;4.35;;
635;SDS011;302;50.206;8.196;2023-05-29T07:59:51;4.50;;;3.75;;
635;SDS011;302;50.206;8.196;2023-05-29T08:02:25;3.50;;;3.10;;
635;SDS011;302;50.206;8.196;2023-05-29T08:04:52;3.70;;;3.40;;
635;SDS011;302;50.206;8.196;2023-05-29T08:07:17;4.67;;;3.90;;
635;SDS011;302;50.206;8.196;2023-05-29T08:09:42;4.17;;;3.53;;
635;SDS011;302;50.206;8.196;2023-05-29T08:12:07;3.70;;;3.40;;
635;SDS011;302;50.206;8.196;2023-05-29T08:14:32;4.13;;;3.60;;
635;SDS011;302;50.206;8.196;2023-05-29T08:16:58;3.70;;;3.40;;
635;SDS011;302;50.206;8.196;2023-05-29T08:19:26;6.17;;;3.90;;
635;SDS011;302;50.206;8.196;2023-05-29T08:25:28;3.35;;;3.05;;
635;SDS011;302;50.206;8.196;2023-05-29T08:28:11;3.72;;;3.25;;
635;SDS011;302;50.206;8.196;2023-05-29T08:30:37;4.10;;;3.53;;
635;SDS011;302;50.206;8.196;2023-05-29T08:33:03;3.80;;;3.50;;
635;SDS011;302;50.206;8.196;2023-05-29T08:35:29;4.25;;;3.33;;
635;SDS011;302;50.206;8.196;2023-05-29T08:37:55;3.67;;;3.37;;
635;SDS011;302;50.206;8.196;2023-05-29T08:40:21;4.53;;;3.50;;
635;SDS011;302;50.206;8.196;2023-05-29T08:42:48;3.97;;;3.67;;
635;SDS011;302;50.206;8.196;2023-05-29T08:45:16;3.78;;;3.47;;
635;SDS011;302;50.206;8.196;2023-05-29T08:47:45;3.47;;;3.28;;
635;SDS011;302;50.206;8.196;2023-05-29T08:50:13;5.43;;;3.80;;
635;SDS011;302;50.206;8.196;2023-05-29T08:52:41;4.07;;;3.53;;
635;SDS011;302;50.206;8.196;2023-05-29T08:55:07;3.15;;;2.95;;
635;SDS011;302;50.206;8.196;2023-05-29T08:57:32;3.90;;;3.40;;
635;SDS011;302;50.206;8.196;2023-05-29T08:59:58;3.83;;;3.30;;
635;SDS011;302;50.206;8.196;2023-05-29T09:02:25;4.05;;;3.60;;
635;SDS011;302;50.206;8.196;2023-05-29T09:04:50;4.80;;;4.40;;
635;SDS011;302;50.206;8.196;2023-05-29T09:07:17;4.13;;;3.72;;
635;SDS011;302;50.206;8.196;2023-05-29T09:09:44;3.53;;;3.22;;
635;SDS011;302;50.206;8.196;2023-05-29T09:12:10;5.65;;;3.72;;
635;SDS011;302;50.206;8.196;2023-05-29T09:14:35;4.00;;;3.60;;
635;SDS011;302;50.206;8.196;2023-05-29T09:17:01;5.20;;;3.80;;
635;SDS011;302;50.206;8.196;2023-05-29T09:19:26;4.57;;;4.17;;
635;SDS011;302;50.206;8.196;2023-05-29T09:21:52;3.50;;;3.20;;
635;SDS011;302;50.206;8.196;2023-05-29T09:24:24;4.93;;;4.45;;
635;SDS011;302;50.206;8.196;2023-05-29T09:26:50;3.50;;;3.20;;
635;SDS011;302;50.206;8.196;2023-05-29T09:29:15;4.43;;;3.30;;
635;SDS011;302;50.206;8.196;2023-05-29T09:31:47;4.87;;;3.17;;
635;SDS011;302;50.206;8.196;2023-05-29T09:34:12;4.90;;;3.45;;
635;SDS011;302;50.206;8.196;2023-05-29T09:36:38;3.60;;;3.30;;
635;SDS011;302;50.206;8.196;2023-05-29T09:39:03;4.43;;;3.10;;
635;SDS011;302;50.206;8.196;2023-05-29T09:41:28;4.87;;;3.17;;
635;SDS011;302;50.206;8.196;2023-05-29T09:43:56;3.53;;;3.30;;
635;SDS011;302;50.206;8.196;2023-05-29T09:46:21;4.60;;;3.63;;
635;SDS011;302;50.206;8.196;2023-05-29T09:48:46;3.60;;;3.30;;
635;SDS011;302;50.206;8.196;2023-05-29T09:51:21;4.37;;;3.40;;
635;SDS011;302;50.206;8.196;2023-05-29T09:53:47;3.40;;;3.05;;
635;SDS011;302;50.206;8.196;2023-05-29T09:56:13;4.30;;;3.40;;
635;SDS011;302;50.206;8.196;2023-05-29T09:58:42;3.60;;;3.15;;
635;SDS011;302;50.206;8.196;2023-05-29T10:01:11;3.33;;;3.03;;
635;SDS011;302;50.206;8.196;2023-05-29T10:03:36;5.30;;;3.40;;
635;SDS011;302;50.206;8.196;2023-05-29T10:06:01;3.60;;;3.30;;
635;SDS011;302;50.206;8.196;2023-05-29T10:08:27;3.40;;;3.10;;
635;SDS011;302;50.206;8.196;2023-05-29T10:11:01;3.55;;;3.10;;
635;SDS011;302;50.206;8.196;2023-05-29T10:13:28;3.83;;;3.30;;
635;SDS011;302;50.206;8.196;2023-05-29T10:15:56;4.28;;;3.33;;
635;SDS011;302;50.206;8.196;2023-05-29T10:18:38;3.50;;;3.20;;
635;SDS011;302;50.206;8.196;2023-05-29T10:21:03;3.53;;;3.10;;
635;SDS011;302;50.206;8.196;2023-05-29T10:23:29;3.40;;;3.10;;
635;SDS011;302;50.206;8.196;2023-05-29T10:25:57;3.33;;;3.03;;
635;SDS011;302;50.206;8.196;2023-05-29T10:28:25;4.15;;;3.78;;
635;SDS011;302;50.206;8.196;2023-05-29T10:30:54;3.47;;;3.17;;
635;SDS011;302;50.206;8.196;2023-05-29T10:36:02;3.55;;;3.25;;
635;SDS011;302;50.206;8.196;2023-05-29T10:38:28;3.90;;;3.60;;
635;SDS011;302;50.206;8.196;2023-05-29T10:40:53;4.00;;;3.40;;
635;SDS011;302;50.206;8.196;2023-05-29T10:43:31;4.57;;;3.07;;
635;SDS011;302;50.206;8.196;2023-05-29T10:45:57;3.03;;;2.80;;
635;SDS011;302;50.206;8.196;2023-05-29T10:50:53;3.73;;;3.43;;
635;SDS011;302;50.206;8.196;2023-05-29T10:53:22;4.32;;;3.70;;
635;SDS011;302;50.206;8.196;2023-05-29T10:55:48;2.93;;;2.73;;
635;SDS011;302;50.206;8.196;2023-05-29T10:58:14;4.27;;;3.93;;
635;SDS011;302;50.206;8.196;2023-05-29T11:00:43;3.80;;;3.00;;
635;SDS011;302;50.206;8.196;2023-05-29T11:03:11;3.40;;;3.10;;
635;SDS011;302;50.206;8.196;2023-05-29T11:08:31;3.53;;;3.10;;
635;SDS011;302;50.206;8.196;2023-05-29T11:10:58;4.77;;;3.60;;
635;SDS011;302;50.206;8.196;2023-05-29T11:13:33;3.50;;;3.10;;
635;SDS011;302;50.206;8.196;2023-05-29T11:18:44;3.67;;;3.37;;
635;SDS011;302;50.206;8.196;2023-05-29T11:21:30;5.13;;;3.20;;
635;SDS011;302;50.206;8.196;2023-05-29T11:24:00;4.37;;;2.83;;
635;SDS011;302;50.206;8.196;2023-05-29T11:26:29;3.33;;;3.13;;
635;SDS011;302;50.206;8.196;2023-05-29T11:29:02;3.73;;;3.40;;
635;SDS011;302;50.206;8.196;2023-05-29T11:31:28;3.33;;;3.13;;
635;SDS011;302;50.206;8.196;2023-05-29T11:33:58;3.53;;;3.23;;
635;SDS011;302;50.206;8.196;2023-05-29T11:36:24;4.30;;;3.40;;
635;SDS011;302;50.206;8.196;2023-05-29T11:38:51;3.30;;;3.00;;
635;SDS011;302;50.206;8.196;2023-05-29T11:41:17;3.67;;;3.10;;
635;SDS011;302;50.206;8.196;2023-05-29T11:43:42;3.70;;;2.90;;
635;SDS011;302;50.206;8.196;2023-05-29T11:46:15;3.03;;;2.77;;
635;SDS011;302;50.206;8.196;2023-05-29T11:48:44;4.50;;;3.30;;
635;SDS011;302;50.206;8.196;2023-05-29T11:51:10;3.10;;;2.80;;
635;SDS011;302;50.206;8.196;2023-05-29T11:53:36;4.33;;;3.30;;
635;SDS011;302;50.206;8.196;2023-05-29T11:56:08;3.53;;;3.23;;
635;SDS011;302;50.206;8.196;2023-05-29T11:58:35;3.83;;;2.70;;
635;SDS011;302;50.206;8.196;2023-05-29T12:01:00;4.93;;;3.50;;
635;SDS011;302;50.206;8.196;2023-05-29T12:03:26;3.97;;;3.10;;
635;SDS011;302;50.206;8.196;2023-05-29T12:05:52;3.43;;;3.00;;
635;SDS011;302;50.206;8.196;2023-05-29T12:08:23;3.20;;;2.90;;
635;SDS011;302;50.206;8.196;2023-05-29T12:10:49;3.50;;;3.10;;
635;SDS011;302;50.206;8.196;2023-05-29T12:13:14;2.60;;;2.40;;
635;SDS011;302;50.206;8.196;2023-05-29T12:15:42;3.90;;;2.90;;
635;SDS011;302;50.206;8.196;2023-05-29T12:18:07;3.20;;;2.83;;
635;SDS011;302;50.206;8.196;2023-05-29T12:20:32;3.33;;;2.63;;
635;SDS011;302;50.206;8.196;2023-05-29T12:22:59;3.50;;;3.20;;
635;SDS011;302;50.206;8.196;2023-05-29T12:25:25;3.30;;;2.93;;
635;SDS011;302;50.206;8.196;2023-05-29T12:27:51;3.27;;;2.97;;
635;SDS011;302;50.206;8.196;2023-05-29T12:30:20;2.60;;;2.40;;
635;SDS011;302;50.206;8.196;2023-05-29T12:32:46;5.07;;;3.17;;
635;SDS011;302;50.206;8.196;2023-05-29T12:37:47;4.07;;;2.67;;
635;SDS011;302;50.206;8.196;2023-05-29T12:40:16;2.50;;;2.30;;
635;SDS011;302;50.206;8.196;2023-05-29T12:42:41;3.47;;;3.17;;
635;SDS011;302;50.206;8.196;2023-05-29T12:45:07;5.13;;;2.40;;
635;SDS011;302;50.206;8.196;2023-05-29T12:47:33;2.73;;;2.53;;
635;SDS011;302;50.206;8.196;2023-05-29T12:49:58;3.27;;;2.97;;
635;SDS011;302;50.206;8.196;2023-05-29T12:52:23;3.13;;;2.73;;
635;SDS011;302;50.206;8.196;2023-05-29T12:54:48;3.87;;;3.27;;
635;SDS011;302;50.206;8.196;2023-05-29T12:57:14;3.47;;;3.17;;
635;SDS011;302;50.206;8.196;2023-05-29T12:59:39;3.40;;;3.10;;
635;SDS011;302;50.206;8.196;2023-05-29T13:02:05;3.20;;;2.90;;
635;SDS011;302;50.206;8.196;2023-05-29T13:04:32;3.27;;;2.97;;
635;SDS011;302;50.206;8.196;2023-05-29T13:06:57;2.43;;;2.23;;
635;SDS011;302;50.206;8.196;2023-05-29T13:09:23;3.17;;;2.78;;
635;SDS011;302;50.206;8.196;2023-05-29T13:11:48;2.90;;;2.70;;
635;SDS011;302;50.206;8.196;2023-05-29T13:14:13;3.08;;;2.83;;
635;SDS011;302;50.206;8.196;2023-05-29T13:16:38;3.50;;;2.83;;
635;SDS011;302;50.206;8.196;2023-05-29T13:19:03;3.80;;;3.23;;
635;SDS011;302;50.206;8.196;2023-05-29T13:21:28;2.60;;;2.40;;
635;SDS011;302;50.206;8.196;2023-05-29T13:23:54;3.33;;;3.03;;
635;SDS011;302;50.206;8.196;2023-05-29T13:26:19;4.20;;;2.50;;
635;SDS011;302;50.206;8.196;2023-05-29T13:28:44;2.70;;;2.50;;
635;SDS011;302;50.206;8.196;2023-05-29T13:31:09;3.03;;;2.80;;
635;SDS011;302;50.206;8.196;2023-05-29T13:33:34;3.53;;;3.03;;
635;SDS011;302;50.206;8.196;2023-05-29T13:35:59;3.47;;;3.17;;
635;SDS011;302;50.206;8.196;2023-05-29T13:38:25;3.17;;;2.97;;
635;SDS011;302;50.206;8.196;2023-05-29T13:40:50;2.70;;;2.50;;
635;SDS011;302;50.206;8.196;2023-05-29T13:43:15;3.00;;;2.80;;
635;SDS011;302;50.206;8.196;2023-05-29T13:45:40;2.73;;;2.53;;
635;SDS011;302;50.206;8.196;2023-05-29T13:48:06;3.50;;;3.00;;
635;SDS011;302;50.206;8.196;2023-05-29T13:50:31;3.03;;;2.83;;
635;SDS011;302;50.206;8.196;2023-05-29T13:52:56;2.73;;;2.53;;
635;SDS011;302;50.206;8.196;2023-05-29T13:55:21;2.60;;;2.40;;
635;SDS011;302;50.206;8.196;2023-05-29T13:57:46;3.00;;;2.80;;
635;SDS011;302;50.206;8.196;2023-05-29T14:00:12;2.97;;;2.77;;
635;SDS011;302;50.206;8.196;2023-05-29T14:02:37;3.43;;;3.13;;
635;SDS011;302;50.206;8.196;2023-05-29T14:05:02;6.27;;;3.10;;
635;SDS011;302;50.206;8.196;2023-05-29T14:07:27;3.33;;;3.10;;
635;SDS011;302;50.206;8.196;2023-05-29T14:09:53;2.60;;;2.47;;
635;SDS011;302;50.206;8.196;2023-05-29T14:12:18;3.37;;;2.90;;
635;SDS011;302;50.206;8.196;2023-05-29T14:14:43;4.13;;;2.50;;
635;SDS011;302;50.206;8.196;2023-05-29T14:17:08;3.00;;;2.80;;
635;SDS011;302;50.206;8.196;2023-05-29T14:19:34;3.30;;;3.10;;
635;SDS011;302;50.206;8.196;2023-05-29T14:21:59;3.50;;;3.30;;
635;SDS011;302;50.206;8.196;2023-05-29T14:24:25;3.30;;;3.00;;
635;SDS011;302;50.206;8.196;2023-05-29T14:26:51;3.37;;;3.17;;
635;SDS011;302;50.206;8.196;2023-05-29T14:29:16;2.57;;;2.37;;
635;SDS011;302;50.206;8.196;2023-05-29T14:31:42;3.30;;;3.10;;
635;SDS011;302;50.206;8.196;2023-05-29T14:34:07;3.03;;;2.83;;
635;SDS011;302;50.206;8.196;2023-05-29T14:36:32;3.60;;;3.40;;
635;SDS011;302;50.206;8.196;2023-05-29T14:38:57;3.35;;;3.10;;
635;SDS011;302;50.206;8.196;2023-05-29T14:41:23;3.47;;;2.90;;
635;SDS011;302;50.206;8.196;2023-05-29T14:43:49;3.40;;;3.10;;
635;SDS011;302;50.206;8.196;2023-05-29T14:46:16;3.38;;;3.17;;
635;SDS011;302;50.206;8.196;2023-05-29T14:48:41;3.25;;;3.05;;
635;SDS011;302;50.206;8.196;2023-05-29T14:51:06;3.10;;;2.90;;
635;SDS011;302;50.206;8.196;2023-05-29T14:53:32;3.27;;;3.07;;
635;SDS011;302;50.206;8.196;2023-05-29T14:55:57;3.97;;;3.43;;
635;SDS011;302;50.206;8.196;2023-05-29T14:58:22;2.90;;;2.70;;
635;SDS011;302;50.206;8.196;2023-05-29T15:00:48;3.63;;;3.33;;
635;SDS011;302;50.206;8.196;2023-05-29T15:03:13;3.40;;;3.17;;
635;SDS011;302;50.206;8.196;2023-05-29T15:05:38;2.90;;;2.70;;
635;SDS011;302;50.206;8.196;2023-05-29T15:08:03;3.53;;;3.23;;
635;SDS011;302;50.206;8.196;2023-05-29T15:10:28;3.20;;;3.00;;
635;SDS011;302;50.206;8.196;2023-05-29T15:12:54;3.33;;;3.13;;
635;SDS011;302;50.206;8.196;2023-05-29T15:15:24;3.53;;;3.27;;
635;SDS011;302;50.206;8.196;2023-05-29T15:17:51;4.20;;;3.67;;
635;SDS011;302;50.206;8.196;2023-05-29T15:20:23;4.10;;;3.70;;
635;SDS011;302;50.206;8.196;2023-05-29T15:22:50;3.00;;;2.77;;
635;SDS011;302;50.206;8.196;2023-05-29T15:25:16;3.50;;;3.17;;
635;SDS011;302;50.206;8.196;2023-05-29T15:27:42;3.80;;;3.50;;
635;SDS011;302;50.206;8.196;2023-05-29T15:30:11;3.50;;;3.20;;
635;SDS011;302;50.206;8.196;2023-05-29T15:32:38;3.63;;;3.10;;
635;SDS011;302;50.206;8.196;2023-05-29T15:35:09;3.57;;;3.27;;
635;SDS011;302;50.206;8.196;2023-05-29T15:37:35;2.67;;;2.47;;
635;SDS011;302;50.206;8.196;2023-05-29T15:40:00;3.23;;;3.03;;
635;SDS011;302;50.206;8.196;2023-05-29T15:42:26;2.80;;;2.60;;
635;SDS011;302;50.206;8.196;2023-05-29T15:44:51;3.60;;;3.33;;
635;SDS011;302;50.206;8.196;2023-05-29T15:47:16;3.27;;;3.07;;
635;SDS011;302;50.206;8.196;2023-05-29T15:49:41;3.30;;;3.00;;
635;SDS011;302;50.206;8.196;2023-05-29T15:52:07;3.53;;;3.30;;
635;SDS011;302;50.206;8.196;2023-05-29T15:54:32;3.03;;;2.80;;
635;SDS011;302;50.206;8.196;2023-05-29T15:56:57;3.47;;;3.17;;
635;SDS011;302;50.206;8.196;2023-05-29T15:59:27;3.47;;;3.00;;
635;SDS011;302;50.206;8.196;2023-05-29T16:01:52;3.27;;;3.03;;
635;SDS011;302;50.206;8.196;2023-05-29T16:04:17;3.73;;;3.43;;
635;SDS011;302;50.206;8.196;2023-05-29T16:06:42;3.30;;;3.07;;
635;SDS011;302;50.206;8.196;2023-05-29T16:09:07;3.90;;;3.30;;